Time;durP1;ratioP1;P1;durP2;ratioP2;P2;SDS_P1;SDS_P2;PMS_P1;PMS_P2;Temp;Humidity;BMP_temperature;BMP_pressure;BME280_temperature;BME280_humidity;BME280_pressure;Samples;Min_cycle;Max_cycle;Signal;HPM_P1;HPM_P2
2022/03/16 00:02:07;;;;;;;13.75;6.50;;;21.50;53.10;;;;;;4917529;29;20024;-73
2022/03/16 00:04:34;;;;;;;10.73;6.32;;;21.50;53.20;;;;;;4918054;29;20033;-73
2022/03/16 00:06:59;;;;;;;12.80;6.68;;;21.50;53.30;;;;;;4918122;29;20032;-73
2022/03/16 00:09:25;;;;;;;13.65;5.93;;;21.50;53.20;;;;;;4918068;29;20039;-73
2022/03/16 00:11:51;;;;;;;13.15;6.75;;;21.50;53.40;;;;;;4916680;29;20036;-73
2022/03/16 00:14:17;;;;;;;12.65;6.07;;;21.50;53.30;;;;;;4917383;29;20039;-73
2022/03/16 00:16:43;;;;;;;12.52;6.70;;;21.50;53.40;;;;;;4917925;29;20040;-73
2022/03/16 00:19:08;;;;;;;15.20;6.70;;;21.50;53.40;;;;;;4918158;29;20103;-73
2022/03/16 00:21:34;;;;;;;11.25;5.88;;;21.50;53.50;;;;;;4917604;29;20366;-73
2022/03/16 00:24:01;;;;;;;12.20;7.15;;;21.40;53.40;;;;;;4916759;29;20229;-73
2022/03/16 00:26:27;;;;;;;10.50;6.00;;;21.50;53.50;;;;;;4916839;29;20044;-73
2022/03/16 00:28:52;;;;;;;15.90;6.97;;;21.40;53.50;;;;;;4916798;29;20032;-73
2022/03/16 00:31:18;;;;;;;11.00;6.07;;;21.50;53.60;;;;;;4916331;29;20042;-73
2022/03/16 00:33:45;;;;;;;14.57;6.10;;;21.40;53.60;;;;;;4916043;29;20135;-73
2022/03/16 00:36:11;;;;;;;12.80;5.82;;;21.40;53.60;;;;;;4915780;29;20032;-73
2022/03/16 00:38:37;;;;;;;11.55;5.45;;;21.50;53.80;;;;;;4916639;29;20024;-73
2022/03/16 00:41:03;;;;;;;12.13;5.65;;;21.50;53.80;;;;;;4916323;29;20060;-73
2022/03/16 00:43:29;;;;;;;12.38;6.45;;;21.50;53.80;;;;;;4916014;29;20119;-73
2022/03/16 00:45:55;;;;;;;10.68;5.90;;;21.50;53.80;;;;;;4916497;29;20127;-73
2022/03/16 00:48:21;;;;;;;11.98;5.95;;;21.40;53.80;;;;;;4897520;29;20029;-73
2022/03/16 00:50:46;;;;;;;10.98;5.90;;;21.50;53.80;;;;;;4897502;29;20029;-73
2022/03/16 00:53:13;;;;;;;11.20;5.88;;;21.50;53.80;;;;;;4896856;29;20059;-73
2022/03/16 00:55:40;;;;;;;10.63;5.88;;;21.50;53.90;;;;;;4897503;29;20036;-71
2022/03/16 00:58:06;;;;;;;12.32;6.22;;;21.50;54.00;;;;;;4897484;29;20029;-72
2022/03/16 01:00:32;;;;;;;12.10;6.35;;;21.50;53.70;;;;;;4897253;29;20088;-73
2022/03/16 01:02:57;;;;;;;13.90;5.82;;;21.50;54.10;;;;;;4896995;29;20035;-72
2022/03/16 01:05:23;;;;;;;10.95;5.82;;;21.50;54.20;;;;;;4909869;29;20123;-72
2022/03/16 01:07:49;;;;;;;11.52;6.13;;;21.50;54.40;;;;;;4917198;29;20024;-72
2022/03/16 01:10:15;;;;;;;12.05;5.43;;;21.50;54.30;;;;;;4915848;29;20038;-72
2022/03/16 01:12:40;;;;;;;10.68;5.75;;;21.40;54.40;;;;;;4916433;29;20493;-73
2022/03/16 01:15:07;;;;;;;10.18;5.53;;;21.50;54.50;;;;;;4915555;29;20091;-73
2022/03/16 01:17:34;;;;;;;10.70;6.07;;;21.50;54.50;;;;;;4900000;29;20032;-73
2022/03/16 01:20:00;;;;;;;10.90;6.13;;;21.50;54.40;;;;;;4915649;29;20059;-73
2022/03/16 01:22:26;;;;;;;10.80;6.07;;;21.50;54.40;;;;;;4914978;29;20040;-73
2022/03/16 01:24:51;;;;;;;10.13;5.93;;;21.50;54.40;;;;;;4900069;29;20543;-72
2022/03/16 01:27:18;;;;;;;10.40;5.47;;;21.40;54.40;;;;;;4915767;29;20048;-73
2022/03/16 01:29:44;;;;;;;13.27;5.53;;;21.40;54.40;;;;;;4915415;29;20028;-72
2022/03/16 01:32:10;;;;;;;12.65;6.28;;;21.40;54.50;;;;;;4915059;29;20048;-72
2022/03/16 01:34:35;;;;;;;10.73;5.45;;;21.40;54.50;;;;;;4915287;29;20035;-73
2022/03/16 01:37:03;;;;;;;11.00;5.50;;;21.40;54.70;;;;;;4915574;29;20036;-72
2022/03/16 01:39:31;;;;;;;10.48;5.72;;;21.40;54.70;;;;;;4915431;29;20069;-72
2022/03/16 01:41:57;;;;;;;9.30;5.38;;;21.50;54.60;;;;;;4914824;29;20073;-73
2022/03/16 01:44:44;;;;;;;12.20;6.25;;;21.50;54.90;;;;;;4916552;29;20064;-72
2022/03/16 01:47:10;;;;;;;14.13;5.85;;;21.50;54.80;;;;;;4915685;29;20043;-72
2022/03/16 01:49:39;;;;;;;11.73;5.85;;;21.50;54.80;;;;;;4899463;29;20709;-73
2022/03/16 01:52:05;;;;;;;12.32;5.60;;;21.50;54.80;;;;;;4914870;29;20107;-72
2022/03/16 01:54:31;;;;;;;8.73;5.15;;;21.50;54.80;;;;;;4915242;29;20036;-73
2022/03/16 01:56:58;;;;;;;10.95;5.82;;;21.50;54.80;;;;;;4915084;29;20031;-72
2022/03/16 01:59:24;;;;;;;9.45;5.65;;;21.50;54.80;;;;;;4915095;29;20032;-72
2022/03/16 02:01:49;;;;;;;10.48;5.53;;;21.50;55.00;;;;;;4914554;29;20493;-73
2022/03/16 02:04:15;;;;;;;9.43;5.68;;;21.50;54.90;;;;;;4898933;29;20039;-72
2022/03/16 02:06:41;;;;;;;9.68;5.38;;;21.50;55.00;;;;;;4915982;29;20088;-73
2022/03/16 02:09:07;;;;;;;12.10;5.95;;;21.50;55.20;;;;;;4915175;29;20032;-72
2022/03/16 02:11:33;;;;;;;8.98;5.03;;;21.50;55.20;;;;;;4899333;29;20527;-72
2022/03/16 02:13:59;;;;;;;10.80;5.60;;;21.50;55.10;;;;;;4914203;29;20024;-72
2022/03/16 02:16:24;;;;;;;9.05;5.10;;;21.50;55.30;;;;;;4915799;29;20024;-72
2022/03/16 02:18:52;;;;;;;9.55;5.75;;;21.40;55.20;;;;;;4915905;29;20052;-72
2022/03/16 02:21:20;;;;;;;8.73;4.95;;;21.40;55.20;;;;;;4914895;29;20080;-73
2022/03/16 02:23:45;;;;;;;7.90;4.97;;;21.50;55.30;;;;;;4914497;29;20043;-72
2022/03/16 02:26:14;;;;;;;8.45;5.22;;;21.50;55.40;;;;;;4916019;29;20036;-72
2022/03/16 02:28:40;;;;;;;12.45;4.72;;;21.50;55.30;;;;;;4915012;29;20572;-72
2022/03/16 02:31:06;;;;;;;9.50;5.10;;;21.50;55.40;;;;;;4914392;29;20119;-73
2022/03/16 02:33:31;;;;;;;9.70;4.88;;;21.50;55.50;;;;;;4914973;29;20128;-72
2022/03/16 02:35:57;;;;;;;9.40;5.28;;;21.50;55.70;;;;;;4915522;29;20115;-72
2022/03/16 02:38:23;;;;;;;8.65;5.05;;;21.50;55.60;;;;;;4915776;29;20076;-72
2022/03/16 02:40:49;;;;;;;8.15;5.03;;;21.40;55.70;;;;;;4915611;29;20028;-73
2022/03/16 02:43:15;;;;;;;10.93;5.60;;;21.50;55.60;;;;;;4915068;29;20028;-73
2022/03/16 02:45:41;;;;;;;10.43;5.28;;;21.50;55.60;;;;;;4898542;29;20077;-72
2022/03/16 02:48:07;;;;;;;14.43;5.30;;;21.50;55.70;;;;;;4915198;29;20087;-72
2022/03/16 02:50:33;;;;;;;9.48;5.30;;;21.50;55.60;;;;;;4914084;29;20020;-72
2022/03/16 02:52:59;;;;;;;9.65;5.13;;;21.50;55.60;;;;;;4898238;29;20032;-72
2022/03/16 02:55:25;;;;;;;7.30;4.75;;;21.50;55.60;;;;;;4915463;29;20473;-72
2022/03/16 02:57:50;;;;;;;9.30;5.13;;;21.50;55.50;;;;;;4914975;29;20039;-72
2022/03/16 03:00:16;;;;;;;11.00;5.05;;;21.50;56.00;;;;;;4914880;29;20029;-72
2022/03/16 03:02:42;;;;;;;11.63;5.22;;;21.50;55.50;;;;;;4914833;29;20087;-72
2022/03/16 03:05:08;;;;;;;10.30;4.68;;;21.50;55.50;;;;;;4910355;29;20107;-72
2022/03/16 03:07:34;;;;;;;8.43;4.72;;;21.50;55.50;;;;;;4913632;29;20068;-72
2022/03/16 03:10:00;;;;;;;9.70;5.10;;;21.50;55.50;;;;;;4915449;29;20111;-72
2022/03/16 03:12:25;;;;;;;8.73;4.88;;;21.50;55.40;;;;;;4913412;29;20086;-72
2022/03/16 03:14:51;;;;;;;9.30;4.90;;;21.50;55.30;;;;;;4914421;29;20028;-72
2022/03/16 03:17:17;;;;;;;9.52;4.93;;;21.50;55.50;;;;;;4914704;29;20040;-72
2022/03/16 03:19:43;;;;;;;9.02;4.85;;;21.50;55.60;;;;;;4915053;29;20032;-73
2022/03/16 03:22:09;;;;;;;8.23;4.82;;;21.50;55.60;;;;;;4913468;29;20032;-72
2022/03/16 03:24:35;;;;;;;8.70;5.05;;;21.40;55.50;;;;;;4914748;29;20119;-73
2022/03/16 03:27:01;;;;;;;8.73;4.85;;;21.50;55.50;;;;;;4913906;29;20461;-73
2022/03/16 03:29:27;;;;;;;6.93;4.43;;;21.50;55.70;;;;;;4914606;29;20036;-72
2022/03/16 03:31:53;;;;;;;8.02;4.22;;;21.50;55.60;;;;;;4914935;29;20020;-72
2022/03/16 03:34:18;;;;;;;9.15;4.95;;;21.50;55.50;;;;;;4913394;29;20064;-72
2022/03/16 03:36:44;;;;;;;9.98;4.57;;;21.50;55.60;;;;;;4912336;29;20032;-72
2022/03/16 03:39:10;;;;;;;11.10;5.15;;;21.50;55.70;;;;;;4912239;29;20063;-72
2022/03/16 03:41:36;;;;;;;9.82;5.20;;;21.50;55.80;;;;;;4913809;29;20060;-73
2022/03/16 03:44:02;;;;;;;8.75;5.05;;;21.50;55.80;;;;;;4913717;29;20540;-73
2022/03/16 03:46:27;;;;;;;7.47;4.40;;;21.50;56.00;;;;;;4910012;29;20060;-73
2022/03/16 03:48:53;;;;;;;9.38;4.82;;;21.50;56.10;;;;;;4919287;29;20119;-73
2022/03/16 03:51:19;;;;;;;9.05;4.45;;;21.40;56.00;;;;;;4932737;29;20031;-73
2022/03/16 03:53:45;;;;;;;9.77;4.72;;;21.50;56.00;;;;;;4915268;29;20032;-74
2022/03/16 03:56:10;;;;;;;10.45;4.57;;;21.50;56.30;;;;;;4914905;29;20024;-74
2022/03/16 03:58:38;;;;;;;9.32;4.45;;;21.50;56.10;;;;;;4897864;29;20043;-74
2022/03/16 04:01:05;;;;;;;9.25;5.05;;;21.50;56.20;;;;;;4894399;29;20084;-75
2022/03/16 04:03:32;;;;;;;9.05;5.18;;;21.50;56.60;;;;;;4895619;29;20033;-75
2022/03/16 04:05:59;;;;;;;10.52;4.88;;;21.60;57.20;;;;;;4895902;29;20092;-75
2022/03/16 04:08:25;;;;;;;8.98;4.80;;;21.60;57.10;;;;;;4895984;29;20060;-74
2022/03/16 04:10:51;;;;;;;10.90;4.97;;;21.60;57.00;;;;;;4898217;29;20032;-74
2022/03/16 04:13:16;;;;;;;15.75;4.78;;;21.60;56.80;;;;;;4897981;29;20455;-77
2022/03/16 04:15:42;;;;;;;12.65;5.95;;;21.60;56.60;;;;;;4900927;29;20047;-75
2022/03/16 04:18:08;;;;;;;13.52;6.78;;;21.50;55.70;;;;;;4914319;29;20028;-75
2022/03/16 04:20:33;;;;;;;13.00;6.50;;;21.40;54.70;;;;;;4917769;29;20436;-75
2022/03/16 04:22:59;;;;;;;13.10;6.75;;;21.40;54.80;;;;;;4917645;29;20433;-75
2022/03/16 04:25:25;;;;;;;10.18;6.05;;;21.40;54.80;;;;;;4917772;29;20032;-75
2022/03/16 04:27:51;;;;;;;13.52;6.05;;;21.40;54.50;;;;;;4916396;29;20098;-75
2022/03/16 04:30:16;;;;;;;12.98;6.50;;;21.40;54.70;;;;;;4900614;29;20032;-74
2022/03/16 04:32:42;;;;;;;14.77;7.13;;;21.40;54.50;;;;;;4916667;29;20028;-74
2022/03/16 04:35:08;;;;;;;12.57;6.18;;;21.50;53.90;;;;;;4917656;29;20020;-74
2022/03/16 04:37:35;;;;;;;12.63;6.88;;;21.40;53.40;;;;;;4917677;29;20051;-74
2022/03/16 04:40:01;;;;;;;15.77;6.10;;;21.40;52.70;;;;;;4916213;29;20502;-74
2022/03/16 04:42:26;;;;;;;16.05;6.03;;;21.40;53.10;;;;;;4916199;29;20028;-74
2022/03/16 04:44:52;;;;;;;13.02;6.50;;;21.40;52.50;;;;;;4917355;29;20038;-75
2022/03/16 04:47:18;;;;;;;14.45;6.03;;;21.40;52.90;;;;;;4917073;29;20128;-74
2022/03/16 04:49:43;;;;;;;15.13;6.55;;;21.40;52.70;;;;;;4898235;29;20056;-75
2022/03/16 04:52:09;;;;;;;13.13;6.05;;;21.40;52.70;;;;;;4898370;29;20032;-75
2022/03/16 04:54:34;;;;;;;10.10;5.82;;;21.40;52.40;;;;;;4897193;29;20469;-75
2022/03/16 04:57:00;;;;;;;14.18;6.10;;;21.40;52.60;;;;;;4898119;29;20087;-75
2022/03/16 04:59:26;;;;;;;15.98;6.40;;;21.40;52.40;;;;;;4916071;29;20126;-75
2022/03/16 05:01:52;;;;;;;11.52;5.55;;;21.40;53.00;;;;;;4916653;29;20433;-75
2022/03/16 05:04:17;;;;;;;12.00;6.00;;;21.40;52.70;;;;;;4915777;29;20028;-75
2022/03/16 05:06:43;;;;;;;10.65;5.22;;;21.40;52.70;;;;;;4917029;29;20111;-75
2022/03/16 05:09:09;;;;;;;14.95;5.43;;;21.40;53.00;;;;;;4917211;29;20032;-75
2022/03/16 05:11:36;;;;;;;9.70;5.55;;;21.40;53.50;;;;;;4900414;29;20144;-75
2022/03/16 05:14:05;;;;;;;11.35;5.43;;;21.40;53.00;;;;;;4916526;29;20584;-74
2022/03/16 05:16:30;;;;;;;10.23;4.90;;;21.40;53.00;;;;;;4916470;29;20020;-75
2022/03/16 05:18:56;;;;;;;11.07;5.15;;;21.40;53.00;;;;;;4915711;29;20272;-75
2022/03/16 05:21:22;;;;;;;10.25;5.20;;;21.40;52.90;;;;;;4916392;29;20035;-75
2022/03/16 05:23:50;;;;;;;12.02;5.35;;;21.40;52.80;;;;;;4899605;29;20111;-75
2022/03/16 05:26:16;;;;;;;11.02;5.50;;;21.40;52.70;;;;;;4916853;29;20036;-76
2022/03/16 05:28:42;;;;;;;12.23;5.35;;;21.40;52.80;;;;;;4916780;29;20040;-75
2022/03/16 05:31:08;;;;;;;9.40;5.07;;;21.40;52.80;;;;;;4916627;29;20039;-75
2022/03/16 05:33:33;;;;;;;9.90;5.07;;;21.40;52.80;;;;;;4915224;29;20044;-75
2022/03/16 05:35:59;;;;;;;7.93;4.70;;;21.40;52.90;;;;;;4916645;29;20110;-75
2022/03/16 05:38:25;;;;;;;9.63;5.13;;;21.40;52.70;;;;;;4915469;29;20028;-75
2022/03/16 05:40:51;;;;;;;9.95;5.07;;;21.40;52.90;;;;;;4915500;29;20020;-75
2022/03/16 05:43:17;;;;;;;9.23;4.85;;;21.40;52.80;;;;;;4914946;29;20067;-75
2022/03/16 05:45:42;;;;;;;8.98;5.22;;;21.40;53.00;;;;;;4916178;29;20074;-75
2022/03/16 05:48:08;;;;;;;12.05;5.15;;;21.40;52.80;;;;;;4916522;29;20027;-74
2022/03/16 05:50:34;;;;;;;9.38;4.93;;;21.40;52.80;;;;;;4916547;29;20034;-75
2022/03/16 05:53:01;;;;;;;7.47;4.70;;;21.40;52.80;;;;;;4915023;29;20036;-74
2022/03/16 05:55:28;;;;;;;10.88;4.90;;;21.40;52.90;;;;;;4916253;29;20036;-75
2022/03/16 05:57:53;;;;;;;10.40;5.43;;;21.40;52.70;;;;;;4916460;29;20047;-74
2022/03/16 06:00:21;;;;;;;10.00;4.78;;;21.40;52.80;;;;;;4914714;29;20063;-75
2022/03/16 06:02:50;;;;;;;8.30;4.80;;;21.40;52.80;;;;;;4915914;29;20034;-74
2022/03/16 06:05:16;;;;;;;9.00;4.85;;;21.40;52.80;;;;;;4914800;29;20032;-75
2022/03/16 06:07:43;;;;;;;11.50;5.30;;;21.40;53.00;;;;;;4916097;29;20400;-75
2022/03/16 06:10:17;;;;;;;8.98;4.85;;;21.40;52.80;;;;;;4914811;29;20119;-75
2022/03/16 06:13:03;;;;;;;8.82;4.55;;;21.40;52.80;;;;;;4915778;29;20093;-75
2022/03/16 06:15:30;;;;;;;9.27;5.07;;;21.40;52.90;;;;;;4911481;29;20035;-75
2022/03/16 06:17:58;;;;;;;9.65;5.18;;;21.40;52.80;;;;;;4898885;29;20111;-75
2022/03/16 06:20:25;;;;;;;11.43;5.32;;;21.40;52.80;;;;;;4914734;29;20068;-75
2022/03/16 06:22:51;;;;;;;10.05;4.72;;;21.40;52.80;;;;;;4915345;29;20036;-75
2022/03/16 06:25:17;;;;;;;10.88;5.40;;;21.40;52.80;;;;;;4915190;29;20028;-75
2022/03/16 06:27:43;;;;;;;9.15;4.80;;;21.40;52.80;;;;;;4914663;29;20036;-74
2022/03/16 06:30:09;;;;;;;8.73;5.10;;;21.40;52.80;;;;;;4915139;29;20086;-75
2022/03/16 06:32:36;;;;;;;10.63;5.10;;;21.40;52.80;;;;;;4913377;29;20040;-76
2022/03/16 06:35:05;;;;;;;11.13;5.18;;;21.40;52.80;;;;;;4914522;29;20080;-76
2022/03/16 06:37:34;;;;;;;8.77;4.80;;;21.40;52.80;;;;;;4910162;29;20028;-76
2022/03/16 06:39:59;;;;;;;9.13;5.13;;;21.40;52.70;;;;;;4915283;29;20024;-76
2022/03/16 06:42:25;;;;;;;8.90;5.10;;;21.40;52.70;;;;;;4897902;29;20280;-76
2022/03/16 06:44:51;;;;;;;9.57;4.55;;;21.40;52.80;;;;;;4915190;29;20397;-75
2022/03/16 06:47:20;;;;;;;8.82;4.68;;;21.40;53.30;;;;;;4915341;29;20485;-76
2022/03/16 06:49:45;;;;;;;8.82;5.00;;;21.40;53.00;;;;;;4914339;29;20060;-76
2022/03/16 06:52:11;;;;;;;9.10;5.32;;;21.40;53.10;;;;;;4914758;29;20111;-76
2022/03/16 06:54:37;;;;;;;8.65;5.22;;;21.40;53.10;;;;;;4914156;29;20040;-75
2022/03/16 06:57:03;;;;;;;10.70;4.88;;;21.40;53.10;;;;;;4914145;29;20024;-76
2022/03/16 06:59:31;;;;;;;7.03;4.45;;;21.40;53.40;;;;;;4914903;29;20027;-76
2022/03/16 07:01:57;;;;;;;9.77;4.50;;;21.40;53.50;;;;;;4914695;29;20032;-75
2022/03/16 07:04:22;;;;;;;10.43;5.20;;;21.40;53.50;;;;;;4913530;29;20051;-75
2022/03/16 07:06:49;;;;;;;7.93;4.70;;;21.40;53.50;;;;;;4914944;29;20036;-76
2022/03/16 07:09:15;;;;;;;10.27;4.72;;;21.40;53.90;;;;;;4913672;29;20063;-76
2022/03/16 07:11:41;;;;;;;9.20;4.85;;;21.40;53.80;;;;;;4912576;29;20056;-76
2022/03/16 07:16:50;;;;;;;8.07;4.28;;;21.50;53.90;;;;;;4915077;29;20508;-76
2022/03/16 07:19:16;;;;;;;9.32;5.28;;;21.50;54.00;;;;;;4913894;29;20028;-76
2022/03/16 07:21:42;;;;;;;9.07;4.28;;;21.50;54.70;;;;;;4898099;29;20119;-77
2022/03/16 07:24:08;;;;;;;8.30;4.80;;;21.50;54.20;;;;;;4914909;29;20032;-76
2022/03/16 07:26:35;;;;;;;8.02;4.50;;;21.50;54.40;;;;;;4914993;29;20717;-76
2022/03/16 07:29:04;;;;;;;10.13;4.55;;;21.50;54.40;;;;;;4914263;29;20040;-76
2022/03/16 07:31:31;;;;;;;6.53;4.72;;;21.50;54.60;;;;;;4914460;29;20032;-76
2022/03/16 07:33:57;;;;;;;9.70;4.72;;;21.50;54.50;;;;;;4897310;29;20031;-77
2022/03/16 07:36:23;;;;;;;12.95;4.72;;;21.50;54.20;;;;;;4914873;29;20036;-77
2022/03/16 07:38:49;;;;;;;19.40;5.38;;;21.50;54.60;;;;;;4897992;29;20036;-77
2022/03/16 07:41:15;;;;;;;13.60;4.72;;;21.60;55.20;;;;;;4912715;29;20032;-78
2022/03/16 07:43:41;;;;;;;9.63;4.50;;;21.60;55.40;;;;;;4914799;29;20040;-77
2022/03/16 07:46:10;;;;;;;16.02;5.05;;;21.60;55.10;;;;;;4914697;29;20040;-78
2022/03/16 07:48:40;;;;;;;12.23;4.72;;;21.60;54.60;;;;;;4918216;29;20032;-77
2022/03/16 07:51:07;;;;;;;10.98;5.22;;;21.60;54.50;;;;;;4916899;29;20032;-77
2022/03/16 07:53:33;;;;;;;16.17;5.32;;;21.70;54.60;;;;;;4901267;29;20063;-77
2022/03/16 07:55:59;;;;;;;9.82;4.90;;;21.70;54.60;;;;;;4916755;29;20032;-78
2022/03/16 07:58:25;;;;;;;8.95;5.00;;;21.70;54.80;;;;;;4918103;29;20028;-78
2022/03/16 08:00:51;;;;;;;12.35;5.00;;;21.70;54.70;;;;;;4918401;29;20503;-78
2022/03/16 08:03:17;;;;;;;9.10;4.95;;;21.70;54.70;;;;;;4915965;29;20039;-78
2022/03/16 08:05:43;;;;;;;8.80;4.60;;;21.70;54.70;;;;;;4918435;29;20036;-78
2022/03/16 08:08:09;;;;;;;11.00;4.43;;;21.70;54.70;;;;;;4917982;29;20028;-78
2022/03/16 08:10:35;;;;;;;11.65;4.72;;;21.80;54.70;;;;;;4916906;29;20036;-78
2022/03/16 08:13:01;;;;;;;10.50;5.00;;;21.80;54.60;;;;;;4917567;29;20044;-75
2022/03/16 08:15:26;;;;;;;12.63;4.35;;;21.80;54.70;;;;;;4918532;29;20440;-78
2022/03/16 08:17:52;;;;;;;9.52;4.55;;;21.80;54.50;;;;;;4917748;29;20032;-78
2022/03/16 08:20:18;;;;;;;17.52;5.03;;;21.80;54.60;;;;;;4916374;29;20404;-77
2022/03/16 08:22:44;;;;;;;13.25;4.80;;;21.90;55.00;;;;;;4916520;29;20109;-77
2022/03/16 08:25:11;;;;;;;18.30;5.40;;;21.90;56.00;;;;;;4901298;29;20028;-78
2022/03/16 08:27:39;;;;;;;20.67;6.45;;;22.00;57.30;;;;;;4917486;29;20036;-78
2022/03/16 08:30:06;;;;;;;20.40;6.60;;;22.00;56.90;;;;;;4901352;29;20040;-77
2022/03/16 08:32:32;;;;;;;18.23;6.40;;;22.10;57.70;;;;;;4916135;29;20096;-75
2022/03/16 08:34:57;;;;;;;30.85;21.58;;;22.10;58.40;;;;;;4917667;29;20067;-75
2022/03/16 08:37:24;;;;;;;39.25;30.27;;;21.90;52.40;;;;;;4916489;29;20028;-75
2022/03/16 08:39:51;;;;;;;34.20;24.17;;;21.70;48.70;;;;;;4917940;29;20028;-75
2022/03/16 08:42:17;;;;;;;25.25;18.20;;;21.50;47.60;;;;;;4916243;29;20040;-78
2022/03/16 08:44:45;;;;;;;28.52;18.77;;;21.40;49.20;;;;;;4916650;29;20028;-77
2022/03/16 08:47:11;;;;;;;33.33;16.70;;;21.30;46.20;;;;;;4916424;29;20039;-77
2022/03/16 08:49:37;;;;;;;31.35;16.75;;;21.40;48.00;;;;;;4916427;29;20032;-79
2022/03/16 08:52:05;;;;;;;25.90;15.52;;;21.50;48.70;;;;;;4916758;29;20028;-77
2022/03/16 08:54:31;;;;;;;22.23;15.45;;;21.50;48.50;;;;;;4915992;29;20481;-77
2022/03/16 08:56:56;;;;;;;24.73;14.15;;;21.50;48.20;;;;;;4916323;29;20066;-78
2022/03/16 08:59:23;;;;;;;23.83;15.10;;;21.50;48.00;;;;;;4917210;29;20032;-78
2022/03/16 09:01:50;;;;;;;19.63;13.65;;;21.60;48.20;;;;;;4917202;29;20061;-78
2022/03/16 09:04:16;;;;;;;20.95;12.75;;;21.60;48.40;;;;;;4916123;29;20047;-77
2022/03/16 09:06:42;;;;;;;21.20;13.15;;;21.60;48.50;;;;;;4916104;29;20392;-77
2022/03/16 09:09:08;;;;;;;19.20;12.98;;;21.60;48.70;;;;;;4915754;29;20036;-77
2022/03/16 09:11:34;;;;;;;22.80;12.52;;;21.60;48.90;;;;;;4900177;29;20031;-77
2022/03/16 09:14:01;;;;;;;20.48;12.55;;;21.70;49.20;;;;;;4916466;29;20040;-77
2022/03/16 09:16:28;;;;;;;18.88;12.00;;;21.70;49.80;;;;;;4916254;29;20127;-77
2022/03/16 09:18:54;;;;;;;19.95;12.77;;;21.70;49.40;;;;;;4900144;29;20032;-78
2022/03/16 09:21:19;;;;;;;20.33;12.77;;;21.60;49.50;;;;;;4917079;29;20063;-78
2022/03/16 09:23:45;;;;;;;20.90;10.93;;;21.60;49.60;;;;;;4916571;29;20032;-78
2022/03/16 09:26:12;;;;;;;21.25;11.50;;;21.70;49.80;;;;;;4916855;29;20035;-78
2022/03/16 09:28:37;;;;;;;17.27;11.10;;;21.70;49.80;;;;;;4916918;29;20031;-78
2022/03/16 09:31:03;;;;;;;20.50;11.20;;;21.70;49.90;;;;;;4915660;29;20036;-78
2022/03/16 09:33:31;;;;;;;19.65;11.75;;;21.70;50.00;;;;;;4915146;29;20039;-78
2022/03/16 09:35:57;;;;;;;20.08;11.27;;;21.70;50.10;;;;;;4916758;29;20028;-78
2022/03/16 09:38:24;;;;;;;20.95;10.77;;;21.70;50.10;;;;;;4916677;29;20030;-79
2022/03/16 09:40:52;;;;;;;17.77;11.13;;;21.70;50.20;;;;;;4915432;29;20536;-80
2022/03/16 09:43:19;;;;;;;18.97;11.37;;;21.80;50.30;;;;;;4916092;29;20232;-79
2022/03/16 09:45:55;;;;;;;17.75;10.60;;;21.80;50.40;;;;;;4915709;29;20453;-79
2022/03/16 09:48:23;;;;;;;18.83;9.48;;;21.80;50.40;;;;;;4899700;29;20035;-79
2022/03/16 09:50:56;;;;;;;15.57;10.02;;;21.80;50.50;;;;;;4916540;29;20416;-79
2022/03/16 09:53:28;;;;;;;17.15;10.43;;;21.70;50.50;;;;;;4914694;29;20043;-79
2022/03/16 09:55:57;;;;;;;17.52;10.40;;;21.80;50.60;;;;;;4916429;29;20032;-79
2022/03/16 09:58:22;;;;;;;17.67;10.17;;;21.70;50.60;;;;;;4916375;29;20043;-79
2022/03/16 10:00:50;;;;;;;15.02;9.30;;;21.70;50.70;;;;;;4916147;29;20389;-79
2022/03/16 10:03:16;;;;;;;15.35;9.68;;;21.70;50.80;;;;;;4898937;29;20508;-79
2022/03/16 10:05:44;;;;;;;17.40;9.45;;;21.70;50.80;;;;;;4915067;29;20497;-79
2022/03/16 10:08:11;;;;;;;18.90;10.40;;;21.70;50.80;;;;;;4915009;29;20064;-79
2022/03/16 10:13:23;;;;;;;16.10;9.70;;;21.70;50.80;;;;;;4914298;29;20440;-79
2022/03/16 10:15:50;;;;;;;15.68;9.45;;;21.70;50.80;;;;;;4915235;29;20088;-79
2022/03/16 10:18:18;;;;;;;19.33;10.32;;;21.70;50.90;;;;;;4914583;29;20485;-79
2022/03/16 10:20:44;;;;;;;17.65;9.32;;;21.70;50.90;;;;;;4914840;29;20036;-79
2022/03/16 10:23:16;;;;;;;16.10;9.93;;;21.80;51.10;;;;;;4914391;29;20114;-79
2022/03/16 10:25:51;;;;;;;17.23;8.80;;;21.80;51.20;;;;;;4914681;29;20445;-79
2022/03/16 10:28:23;;;;;;;14.55;9.43;;;21.80;51.80;;;;;;4914717;29;20064;-79
2022/03/16 10:31:02;;;;;;;14.70;9.27;;;21.80;51.20;;;;;;4914130;29;20594;-79
2022/03/16 10:33:53;;;;;;;15.10;8.95;;;21.80;51.30;;;;;;4913964;29;20548;-79
2022/03/16 10:36:26;;;;;;;16.92;9.55;;;21.80;51.30;;;;;;4915548;29;20038;-79
2022/03/16 10:38:55;;;;;;;13.23;8.10;;;21.80;51.30;;;;;;4914808;29;20137;-79
2022/03/16 10:47:17;;;;;;;14.63;9.00;;;21.80;51.40;;;;;;4915177;29;20036;-79
2022/03/16 10:49:44;;;;;;;12.65;8.18;;;21.90;51.50;;;;;;4915775;29;20047;-79
2022/03/16 10:52:14;;;;;;;15.70;9.00;;;21.90;51.40;;;;;;4915106;29;20040;-79
2022/03/16 10:54:41;;;;;;;13.40;8.48;;;21.90;51.50;;;;;;4898871;29;20413;-79
2022/03/16 10:57:13;;;;;;;13.10;8.32;;;21.90;51.40;;;;;;4914363;29;20036;-79
2022/03/16 10:59:40;;;;;;;13.77;7.53;;;21.80;51.30;;;;;;4915590;29;20389;-78
2022/03/16 11:02:14;;;;;;;13.10;8.00;;;21.80;51.40;;;;;;4913543;29;20110;-78
2022/03/16 11:04:45;;;;;;;12.60;7.97;;;21.80;51.30;;;;;;4898429;29;20472;-79
2022/03/16 11:07:11;;;;;;;12.90;7.38;;;21.80;51.40;;;;;;4915584;29;20401;-77
2022/03/16 11:09:38;;;;;;;13.05;7.95;;;21.80;51.30;;;;;;4883122;29;20040;-77
2022/03/16 11:14:51;;;;;;;12.93;8.02;;;21.80;51.40;;;;;;4914601;29;20036;-77
2022/03/16 11:17:18;;;;;;;13.77;8.00;;;21.80;51.40;;;;;;4913622;29;20029;-77
2022/03/16 11:19:46;;;;;;;12.60;7.65;;;21.80;51.50;;;;;;4902566;29;20552;-76
2022/03/16 11:22:24;;;;;;;12.23;7.22;;;21.80;51.50;;;;;;4921244;29;20036;-76
2022/03/16 11:25:10;;;;;;;11.40;7.53;;;21.80;51.50;;;;;;4920227;29;20032;-77
2022/03/16 11:27:42;;;;;;;14.15;7.68;;;21.80;51.60;;;;;;4920262;29;20042;-76
2022/03/16 11:30:37;;;;;;;13.60;7.63;;;21.80;51.60;;;;;;4920240;29;20036;-77
2022/03/16 11:33:06;;;;;;;12.77;7.75;;;21.80;51.70;;;;;;4909324;29;20036;-77
2022/03/16 11:35:37;;;;;;;12.13;7.78;;;21.80;51.70;;;;;;4920758;29;20475;-77
2022/03/16 11:38:10;;;;;;;12.43;7.32;;;21.80;51.70;;;;;;4921462;29;20035;-77
2022/03/16 11:40:47;;;;;;;11.13;7.25;;;21.80;51.70;;;;;;4920063;29;20197;-77
2022/03/16 11:43:20;;;;;;;11.75;7.25;;;21.80;51.70;;;;;;4921014;29;20028;-77
2022/03/16 11:45:57;;;;;;;11.02;6.80;;;21.70;51.60;;;;;;4921137;29;20099;-77
2022/03/16 11:48:31;;;;;;;12.43;7.05;;;21.70;51.60;;;;;;4921026;29;20135;-77
2022/03/16 11:51:14;;;;;;;12.35;6.93;;;21.80;51.70;;;;;;4921325;29;20067;-77
2022/03/16 11:53:54;;;;;;;10.85;6.80;;;21.80;51.70;;;;;;4920694;29;20040;-77
2022/03/16 11:56:23;;;;;;;12.90;7.47;;;21.80;51.70;;;;;;4921288;29;20035;-77
2022/03/16 11:58:53;;;;;;;10.60;6.50;;;21.80;51.70;;;;;;4919840;29;20072;-77
2022/03/16 12:01:27;;;;;;;14.45;7.15;;;21.80;51.70;;;;;;4920012;29;20028;-77
2022/03/16 12:03:58;;;;;;;12.50;7.13;;;21.80;51.70;;;;;;4919242;29;20413;-77
2022/03/16 12:06:30;;;;;;;10.90;6.85;;;21.80;51.70;;;;;;4920971;29;20043;-77
2022/03/16 12:08:59;;;;;;;11.40;6.85;;;21.80;51.70;;;;;;4921189;29;20064;-77
2022/03/16 12:14:10;;;;;;;12.75;7.15;;;21.70;51.60;;;;;;4931654;29;20041;-77
2022/03/16 12:16:42;;;;;;;11.00;6.88;;;21.70;51.60;;;;;;4902382;29;20483;-77
2022/03/16 12:19:30;;;;;;;13.10;6.82;;;21.70;51.70;;;;;;4932794;29;20036;-76
2022/03/16 12:21:57;;;;;;;11.00;6.60;;;21.70;51.70;;;;;;4901668;29;20362;-77
2022/03/16 12:30:05;;;;;;;10.80;6.80;;;21.70;51.70;;;;;;4919366;29;20036;-77
2022/03/16 12:32:35;;;;;;;11.43;7.25;;;21.70;51.60;;;;;;4917041;29;20401;-76
2022/03/16 12:35:03;;;;;;;11.18;7.15;;;21.70;51.60;;;;;;4918235;29;20079;-76
2022/03/16 12:37:29;;;;;;;10.95;7.15;;;21.70;51.60;;;;;;4917805;29;20576;-76
2022/03/16 12:39:56;;;;;;;10.88;6.60;;;21.70;51.60;;;;;;4916457;29;20108;-76
2022/03/16 12:42:31;;;;;;;11.40;6.22;;;21.70;51.60;;;;;;4916101;29;20028;-76
2022/03/16 12:45:09;;;;;;;11.25;6.75;;;21.70;51.60;;;;;;4917371;29;20064;-77
2022/03/16 12:47:41;;;;;;;11.70;6.88;;;21.70;51.50;;;;;;4917694;29;20024;-77
2022/03/16 12:50:12;;;;;;;10.55;6.25;;;21.70;51.60;;;;;;4917745;29;20024;-77
2022/03/16 12:52:40;;;;;;;11.23;6.82;;;21.70;51.60;;;;;;4915752;29;20481;-77
2022/03/16 12:55:12;;;;;;;11.48;6.90;;;21.70;51.60;;;;;;4917433;29;20028;-77
2022/03/16 12:57:38;;;;;;;9.57;6.05;;;21.70;51.50;;;;;;4900683;29;20032;-77
2022/03/16 13:00:12;;;;;;;10.98;6.47;;;21.70;51.50;;;;;;4917128;29;20062;-77
2022/03/16 13:02:38;;;;;;;10.48;6.28;;;21.70;51.50;;;;;;4900151;29;20040;-76